Time;durP1;ratioP1;P1;durP2;ratioP2;P2;SDS_P1;SDS_P2;PMS_P1;PMS_P2;Temp;Humidity;BMP_temperature;BMP_pressure;BME280_temperature;BME280_humidity;BME280_pressure;Samples;Min_cycle;Max_cycle;Signal;HPM_P1;HPM_P2
2023/03/15 00:00:44;;;;;;;3.17;1.27;;;7.50;67.50;;;;;;5105205;28;20028;-61
2023/03/15 00:03:10;;;;;;;3.38;1.40;;;7.40;67.50;;;;;;5106093;28;20019;-61
2023/03/15 00:05:40;;;;;;;4.10;1.20;;;7.30;67.60;;;;;;5094482;28;20051;-61
2023/03/15 00:08:06;;;;;;;2.15;1.00;;;7.30;67.70;;;;;;5099805;28;20016;-61
2023/03/15 00:10:31;;;;;;;0.88;0.82;;;7.20;67.70;;;;;;5095781;28;20050;-61
2023/03/15 00:12:57;;;;;;;2.65;1.27;;;7.10;67.80;;;;;;5114159;27;20536;-61
2023/03/15 00:15:23;;;;;;;5.45;1.15;;;7.10;67.90;;;;;;5089238;28;20032;-61
2023/03/15 00:17:49;;;;;;;4.15;1.38;;;7.10;67.90;;;;;;5102049;28;20436;-61
2023/03/15 00:20:15;;;;;;;2.58;1.23;;;7.00;67.90;;;;;;5095178;28;20031;-61
2023/03/15 00:22:41;;;;;;;2.47;1.23;;;7.00;68.00;;;;;;5103848;28;20038;-61
2023/03/15 00:25:07;;;;;;;2.05;0.95;;;7.00;68.20;;;;;;5092796;28;20411;-61
2023/03/15 00:27:33;;;;;;;2.78;1.00;;;7.00;68.30;;;;;;5101544;28;20054;-61
2023/03/15 00:29:59;;;;;;;2.65;1.20;;;7.00;68.30;;;;;;5095346;28;20530;-61
2023/03/15 00:32:25;;;;;;;2.42;1.10;;;7.00;68.40;;;;;;5101240;28;20028;-61
2023/03/15 00:34:53;;;;;;;3.00;1.10;;;7.00;68.50;;;;;;5096135;28;20403;-61
2023/03/15 00:37:20;;;;;;;3.95;1.20;;;7.00;68.50;;;;;;5097277;28;20028;-61
2023/03/15 00:39:46;;;;;;;1.92;1.20;;;7.00;68.60;;;;;;5097906;28;20052;-61
2023/03/15 00:42:16;;;;;;;3.90;1.15;;;7.00;68.70;;;;;;5096855;28;20032;-61
2023/03/15 00:44:43;;;;;;;2.95;1.73;;;6.90;68.70;;;;;;5099231;28;20020;-61
2023/03/15 00:47:10;;;;;;;3.58;1.48;;;6.90;68.80;;;;;;5097922;28;20020;-61
2023/03/15 00:49:37;;;;;;;3.15;1.40;;;6.90;69.00;;;;;;5100100;28;20020;-61
2023/03/15 00:52:03;;;;;;;3.83;1.60;;;6.90;68.90;;;;;;5094392;28;20488;-61
2023/03/15 00:54:32;;;;;;;4.45;1.50;;;6.90;69.00;;;;;;5099902;28;20472;-61
2023/03/15 00:57:01;;;;;;;2.25;1.30;;;6.90;69.10;;;;;;5091165;28;20032;-61
2023/03/15 00:59:28;;;;;;;3.13;1.35;;;6.90;69.20;;;;;;5093835;28;20051;-61
2023/03/15 01:01:54;;;;;;;3.33;1.60;;;6.90;69.20;;;;;;5093719;28;20157;-61
2023/03/15 01:04:21;;;;;;;3.53;1.60;;;6.90;69.30;;;;;;5098184;28;20016;-61
2023/03/15 01:06:47;;;;;;;3.97;1.70;;;6.90;69.50;;;;;;5094725;28;20043;-61
2023/03/15 01:09:14;;;;;;;4.10;1.98;;;6.90;69.50;;;;;;5098974;28;20103;-61
2023/03/15 01:11:39;;;;;;;3.65;1.65;;;7.00;69.60;;;;;;5094651;28;20114;-61
2023/03/15 01:14:07;;;;;;;4.32;1.88;;;6.90;69.60;;;;;;5095435;28;20044;-61
2023/03/15 01:16:33;;;;;;;4.47;1.70;;;7.00;69.70;;;;;;5076718;28;20036;-61
2023/03/15 01:18:59;;;;;;;4.38;1.67;;;7.00;69.70;;;;;;5097938;28;20147;-61
2023/03/15 01:21:25;;;;;;;5.63;2.00;;;7.00;69.70;;;;;;5089342;28;20360;-61
2023/03/15 01:23:52;;;;;;;5.35;1.88;;;7.00;69.90;;;;;;5097992;28;20111;-61
2023/03/15 01:26:21;;;;;;;5.97;2.05;;;7.00;70.60;;;;;;5097837;28;20103;-61
2023/03/15 01:28:47;;;;;;;4.97;2.15;;;7.00;70.00;;;;;;5088400;28;20039;-61
2023/03/15 01:31:22;;;;;;;2.95;1.67;;;7.00;70.00;;;;;;5093033;28;20016;-61
2023/03/15 01:33:48;;;;;;;4.13;2.00;;;7.00;70.10;;;;;;5080348;28;20075;-62
2023/03/15 01:36:14;;;;;;;5.55;2.30;;;7.00;70.70;;;;;;5100576;28;20077;-61
2023/03/15 01:38:41;;;;;;;4.75;1.95;;;7.00;70.20;;;;;;5094172;28;20027;-61
2023/03/15 01:41:07;;;;;;;5.32;2.50;;;7.00;70.30;;;;;;5105172;28;20018;-61
2023/03/15 01:43:33;;;;;;;3.97;1.80;;;7.00;70.40;;;;;;5094350;28;20020;-61
2023/03/15 01:46:22;;;;;;;5.97;2.50;;;7.00;70.50;;;;;;5100447;28;20027;-61
2023/03/15 01:49:06;;;;;;;4.32;2.03;;;7.00;70.60;;;;;;5092366;28;20032;-61
2023/03/15 01:51:41;;;;;;;5.30;2.33;;;7.00;70.60;;;;;;5085430;28;20042;-61
2023/03/15 01:54:20;;;;;;;5.53;2.20;;;7.00;70.60;;;;;;5093288;28;20028;-61
2023/03/15 01:56:54;;;;;;;5.85;2.42;;;7.00;70.80;;;;;;5098224;28;20046;-61
2023/03/15 01:59:34;;;;;;;4.53;2.67;;;7.10;70.80;;;;;;5091861;28;20036;-61
2023/03/15 02:02:00;;;;;;;6.05;2.30;;;7.10;70.80;;;;;;5084305;28;20020;-62
2023/03/15 02:04:41;;;;;;;4.10;2.03;;;7.10;70.70;;;;;;5091232;28;20040;-61
2023/03/15 02:07:08;;;;;;;5.40;2.45;;;7.10;70.80;;;;;;5095848;28;20086;-61
2023/03/15 02:09:45;;;;;;;4.93;2.30;;;7.10;70.80;;;;;;5092860;28;20024;-61
2023/03/15 02:12:11;;;;;;;4.88;2.20;;;7.10;70.90;;;;;;5085916;28;20053;-61
2023/03/15 02:14:39;;;;;;;5.50;2.25;;;7.10;71.30;;;;;;5094082;28;20105;-61
2023/03/15 02:17:07;;;;;;;4.32;2.20;;;7.10;71.10;;;;;;5092342;28;20044;-61
2023/03/15 02:19:47;;;;;;;4.40;2.03;;;7.10;71.10;;;;;;5092405;28;20108;-61
2023/03/15 02:22:57;;;;;;;6.13;2.47;;;7.10;71.10;;;;;;5079496;28;20028;-61
2023/03/15 02:25:44;;;;;;;4.18;2.08;;;7.10;71.10;;;;;;5081407;28;20039;-61
2023/03/15 02:28:13;;;;;;;5.50;1.80;;;7.00;71.00;;;;;;5085593;28;20051;-61
2023/03/15 02:30:42;;;;;;;4.63;1.97;;;7.00;71.00;;;;;;5078839;28;20030;-61
2023/03/15 02:33:21;;;;;;;4.50;2.30;;;6.90;71.00;;;;;;5091217;28;20294;-61
2023/03/15 02:35:47;;;;;;;5.57;2.08;;;6.90;71.10;;;;;;5091565;28;20099;-61
2023/03/15 02:38:12;;;;;;;6.50;2.38;;;6.90;71.10;;;;;;5092349;28;20357;-61
2023/03/15 02:40:39;;;;;;;5.28;2.28;;;6.90;71.10;;;;;;5100024;28;20036;-61
2023/03/15 02:43:12;;;;;;;5.22;2.50;;;6.90;71.10;;;;;;5097741;28;20093;-61
2023/03/15 02:45:39;;;;;;;4.03;2.00;;;6.80;71.20;;;;;;5086487;28;20023;-61
2023/03/15 02:48:06;;;;;;;4.50;2.20;;;6.80;71.20;;;;;;5100321;28;20471;-61
2023/03/15 02:50:32;;;;;;;5.93;2.58;;;6.80;71.20;;;;;;5096428;28;20048;-61
2023/03/15 02:52:57;;;;;;;4.25;2.30;;;6.70;71.30;;;;;;5100951;28;20506;-61
2023/03/15 02:55:23;;;;;;;4.20;2.40;;;6.70;71.30;;;;;;5088031;28;20535;-61
2023/03/15 02:57:49;;;;;;;5.03;2.53;;;6.70;71.40;;;;;;5091722;28;20028;-61
2023/03/15 03:00:15;;;;;;;6.38;2.80;;;6.70;71.40;;;;;;5108276;28;20024;-62
2023/03/15 03:02:45;;;;;;;4.57;2.60;;;6.70;71.40;;;;;;5096687;28;20016;-62
2023/03/15 03:05:12;;;;;;;6.85;3.13;;;6.70;71.40;;;;;;5097045;28;20016;-61
2023/03/15 03:07:38;;;;;;;5.80;3.05;;;6.60;71.40;;;;;;5081153;28;20078;-61
2023/03/15 03:10:06;;;;;;;6.20;3.30;;;6.60;71.40;;;;;;5095876;28;20076;-61
2023/03/15 03:12:42;;;;;;;7.05;3.13;;;6.60;71.50;;;;;;5092313;28;20077;-62
2023/03/15 03:15:08;;;;;;;5.78;3.13;;;6.60;71.50;;;;;;5095527;28;20380;-61
2023/03/15 03:17:36;;;;;;;7.30;3.63;;;6.60;71.50;;;;;;5094042;28;20028;-61
2023/03/15 03:20:12;;;;;;;7.63;3.65;;;6.60;71.50;;;;;;5101317;28;20040;-61
2023/03/15 03:22:43;;;;;;;6.70;3.72;;;6.60;71.50;;;;;;5106991;28;20024;-61
2023/03/15 03:25:09;;;;;;;6.68;3.50;;;6.60;71.60;;;;;;5103158;28;20081;-61
2023/03/15 03:27:35;;;;;;;5.72;3.33;;;6.60;71.60;;;;;;5096998;28;20028;-61
2023/03/15 03:30:08;;;;;;;6.65;3.80;;;6.50;71.60;;;;;;5098181;28;20081;-61
2023/03/15 03:32:36;;;;;;;7.57;4.03;;;6.50;71.70;;;;;;5104019;28;20030;-61
2023/03/15 03:35:02;;;;;;;6.30;3.88;;;6.50;71.70;;;;;;5104302;28;20611;-61
2023/03/15 03:37:29;;;;;;;6.90;4.13;;;6.50;71.70;;;;;;5094110;28;20024;-61
2023/03/15 03:39:59;;;;;;;6.85;4.47;;;6.50;71.70;;;;;;5100182;28;20491;-61
2023/03/15 03:42:25;;;;;;;7.18;4.07;;;6.50;71.80;;;;;;5095453;28;20020;-61
2023/03/15 03:44:53;;;;;;;7.82;4.30;;;6.50;71.80;;;;;;5103031;28;20035;-61
2023/03/15 03:47:19;;;;;;;7.30;4.53;;;6.50;71.80;;;;;;5096312;28;20028;-61
2023/03/15 03:49:45;;;;;;;7.05;4.40;;;6.50;71.80;;;;;;5101617;28;20110;-61
2023/03/15 03:52:11;;;;;;;7.95;4.22;;;6.50;71.90;;;;;;5095038;28;20115;-61
2023/03/15 03:54:37;;;;;;;6.75;4.10;;;6.40;71.90;;;;;;5106639;28;20023;-61
2023/03/15 03:57:04;;;;;;;7.72;4.15;;;6.50;71.90;;;;;;5097280;28;20038;-61
2023/03/15 03:59:32;;;;;;;7.28;4.38;;;6.40;71.90;;;;;;5095654;28;20348;-61
2023/03/15 04:02:03;;;;;;;7.13;4.18;;;6.40;71.90;;;;;;5082266;28;20031;-61
2023/03/15 04:04:29;;;;;;;7.55;3.88;;;6.40;71.90;;;;;;5104846;28;20027;-61
2023/03/15 04:06:55;;;;;;;7.20;4.13;;;6.40;72.00;;;;;;5083681;28;20365;-61
2023/03/15 04:09:25;;;;;;;7.68;4.43;;;6.40;72.00;;;;;;5078633;28;20054;-61
2023/03/15 04:11:52;;;;;;;6.63;3.88;;;6.40;72.10;;;;;;5095895;28;20457;-61
2023/03/15 04:14:19;;;;;;;6.88;3.90;;;6.40;72.10;;;;;;5078566;28;20047;-61
2023/03/15 04:16:47;;;;;;;7.72;4.07;;;6.30;72.10;;;;;;5102650;28;20357;-61
2023/03/15 04:19:15;;;;;;;7.18;4.00;;;6.30;72.10;;;;;;5094930;28;20027;-61
2023/03/15 04:21:46;;;;;;;6.90;3.72;;;6.30;72.10;;;;;;5102286;28;20103;-61
2023/03/15 04:24:24;;;;;;;7.93;3.97;;;6.30;72.10;;;;;;5103047;28;20035;-61
2023/03/15 04:26:59;;;;;;;8.35;3.78;;;6.30;72.10;;;;;;5101528;28;20028;-61
2023/03/15 04:29:57;;;;;;;6.00;3.40;;;6.20;72.10;;;;;;5077264;28;20036;-61
2023/03/15 04:33:02;;;;;;;6.93;3.55;;;6.20;72.10;;;;;;5061657;28;20123;-61
2023/03/15 04:35:47;;;;;;;7.72;4.07;;;6.20;72.10;;;;;;5063405;28;20037;-61
2023/03/15 04:38:45;;;;;;;7.43;3.03;;;6.20;72.10;;;;;;5079918;28;20047;-61
2023/03/15 04:41:28;;;;;;;7.22;4.28;;;6.10;72.10;;;;;;5088771;28;20128;-61
2023/03/15 04:44:05;;;;;;;8.65;3.75;;;6.10;72.30;;;;;;5088733;28;20029;-61
2023/03/15 04:46:50;;;;;;;6.80;3.70;;;6.10;72.30;;;;;;5096470;28;20101;-61
2023/03/15 04:49:27;;;;;;;6.47;3.58;;;6.10;72.30;;;;;;5099953;28;20024;-61
2023/03/15 04:52:04;;;;;;;8.35;3.97;;;6.10;72.30;;;;;;5091410;28;20108;-61
2023/03/15 04:54:48;;;;;;;7.55;3.90;;;6.10;72.30;;;;;;5088549;28;20043;-61
2023/03/15 04:57:35;;;;;;;6.78;3.65;;;6.10;72.30;;;;;;5091185;28;20376;-61
2023/03/15 05:00:21;;;;;;;7.47;3.90;;;6.10;72.40;;;;;;5079504;28;20044;-61
2023/03/15 05:03:22;;;;;;;7.70;3.83;;;6.10;72.40;;;;;;5075713;28;20036;-61
2023/03/15 05:06:17;;;;;;;6.68;3.80;;;6.10;72.40;;;;;;5078568;28;20040;-61
2023/03/15 05:08:45;;;;;;;7.60;4.17;;;6.00;72.40;;;;;;5076796;28;20062;-61
2023/03/15 05:11:37;;;;;;;8.05;4.38;;;6.00;72.40;;;;;;5074109;28;20120;-61
2023/03/15 05:14:18;;;;;;;6.93;3.78;;;6.10;72.50;;;;;;5092663;28;20051;-61
2023/03/15 05:17:14;;;;;;;8.00;3.90;;;6.00;72.50;;;;;;5078115;28;20036;-61
2023/03/15 05:20:00;;;;;;;7.55;3.90;;;6.00;72.50;;;;;;5074506;28;20040;-61
2023/03/15 05:22:41;;;;;;;7.60;4.15;;;6.00;72.60;;;;;;5078822;28;20043;-61
2023/03/15 05:25:26;;;;;;;8.70;4.83;;;6.00;72.60;;;;;;5073359;28;20144;-61
2023/03/15 05:28:10;;;;;;;9.63;4.55;;;6.00;72.60;;;;;;5079617;28;20040;-61
2023/03/15 05:30:56;;;;;;;8.18;4.43;;;6.00;72.60;;;;;;5076868;28;20412;-61
2023/03/15 05:33:45;;;;;;;7.40;3.97;;;6.00;73.20;;;;;;5077187;28;20423;-61
2023/03/15 05:36:30;;;;;;;7.72;4.03;;;5.90;72.60;;;;;;5078424;28;20044;-61
2023/03/15 05:39:16;;;;;;;8.10;4.77;;;5.90;72.60;;;;;;5090445;28;20325;-61
2023/03/15 05:41:58;;;;;;;9.00;4.70;;;5.90;72.70;;;;;;5090629;28;20032;-61
2023/03/15 05:44:35;;;;;;;8.68;5.03;;;5.90;72.80;;;;;;5098061;28;20024;-61
2023/03/15 05:47:04;;;;;;;8.60;4.80;;;5.80;72.70;;;;;;5091297;28;20047;-61
2023/03/15 05:49:53;;;;;;;8.83;4.63;;;5.90;72.80;;;;;;5089901;28;20464;-61
2023/03/15 05:52:42;;;;;;;8.20;4.73;;;5.80;72.70;;;;;;5093445;28;20443;-61
2023/03/15 05:55:24;;;;;;;8.90;5.20;;;5.80;72.70;;;;;;5089866;28;20449;-61
2023/03/15 05:58:16;;;;;;;8.63;4.95;;;5.80;72.70;;;;;;5080274;28;20028;-61
2023/03/15 06:01:02;;;;;;;9.63;5.20;;;5.80;72.70;;;;;;5091414;28;20352;-61
2023/03/15 06:03:46;;;;;;;10.13;5.05;;;5.80;72.70;;;;;;5091956;28;20039;-61
2023/03/15 06:06:19;;;;;;;8.32;4.95;;;5.70;72.70;;;;;;5092440;28;20030;-61
2023/03/15 06:08:45;;;;;;;8.13;4.47;;;5.80;72.80;;;;;;5092752;28;20028;-61
2023/03/15 06:11:11;;;;;;;9.95;5.13;;;5.70;72.70;;;;;;5092204;28;20043;-62
2023/03/15 06:13:37;;;;;;;8.48;5.15;;;5.80;72.80;;;;;;5091486;28;20044;-63
2023/03/15 06:16:08;;;;;;;10.02;5.28;;;5.70;72.80;;;;;;5074765;28;20085;-62
2023/03/15 06:18:37;;;;;;;8.55;5.25;;;5.80;72.90;;;;;;5087836;28;20429;-61
2023/03/15 06:21:03;;;;;;;8.38;4.65;;;5.80;72.80;;;;;;5091929;28;20048;-61
2023/03/15 06:23:29;;;;;;;8.70;5.27;;;5.80;72.70;;;;;;5092807;28;20115;-61
2023/03/15 06:25:55;;;;;;;8.93;5.18;;;5.80;72.80;;;;;;5092708;28;20348;-61
2023/03/15 06:28:21;;;;;;;11.27;5.50;;;5.80;72.70;;;;;;5088297;28;20032;-61
2023/03/15 06:30:52;;;;;;;11.02;5.28;;;5.80;72.80;;;;;;5092117;28;20119;-61
2023/03/15 06:33:23;;;;;;;9.13;5.32;;;5.80;72.80;;;;;;5093739;28;20036;-61
2023/03/15 06:35:49;;;;;;;9.70;5.13;;;5.90;72.90;;;;;;5097039;28;20038;-61
2023/03/15 06:38:15;;;;;;;9.03;4.80;;;5.90;72.90;;;;;;5095249;28;20020;-61
2023/03/15 06:40:42;;;;;;;9.05;4.68;;;5.90;72.80;;;;;;5096472;28;20039;-61
2023/03/15 06:43:07;;;;;;;9.55;4.88;;;6.00;72.80;;;;;;5097185;28;20046;-61
2023/03/15 06:45:34;;;;;;;8.68;3.97;;;6.10;72.70;;;;;;5096645;28;20056;-61
2023/03/15 06:48:01;;;;;;;9.75;4.53;;;6.10;72.60;;;;;;5093532;28;20027;-61
2023/03/15 06:50:26;;;;;;;11.43;4.57;;;6.20;72.50;;;;;;5105922;28;20028;-62
2023/03/15 06:52:52;;;;;;;8.70;4.40;;;6.20;72.40;;;;;;5079878;28;20039;-61
2023/03/15 06:55:18;;;;;;;8.68;4.30;;;6.30;72.40;;;;;;5096668;28;20115;-62
2023/03/15 06:57:45;;;;;;;9.02;4.53;;;6.30;72.40;;;;;;5096352;28;20348;-61
2023/03/15 07:00:11;;;;;;;8.88;4.63;;;6.30;72.30;;;;;;5097030;28;20012;-61
2023/03/15 07:02:37;;;;;;;7.93;3.50;;;6.40;72.30;;;;;;5106975;28;20023;-61
2023/03/15 07:05:04;;;;;;;7.68;3.97;;;6.50;72.00;;;;;;5095984;28;20428;-61
2023/03/15 07:07:29;;;;;;;9.35;3.80;;;6.60;71.60;;;;;;5098488;28;20124;-61
2023/03/15 07:09:55;;;;;;;7.50;3.13;;;6.80;71.40;;;;;;5095279;28;20468;-61
2023/03/15 07:12:22;;;;;;;8.27;3.78;;;6.90;71.00;;;;;;5108198;27;20028;-62
2023/03/15 07:14:48;;;;;;;8.98;3.60;;;7.10;70.70;;;;;;5097298;28;20048;-62
2023/03/15 07:17:14;;;;;;;7.63;3.58;;;7.20;70.40;;;;;;5094767;28;20028;-61
2023/03/15 07:19:40;;;;;;;7.95;3.28;;;7.30;70.20;;;;;;5094969;28;20115;-62
2023/03/15 07:22:06;;;;;;;10.95;4.18;;;7.30;70.00;;;;;;5091712;28;20110;-61
2023/03/15 07:24:32;;;;;;;7.10;3.08;;;7.40;69.90;;;;;;5094591;28;20024;-61
2023/03/15 07:26:57;;;;;;;10.13;3.75;;;7.40;69.70;;;;;;5095129;28;20089;-62
2023/03/15 07:29:23;;;;;;;7.47;3.80;;;7.50;69.70;;;;;;5092948;28;20415;-61
2023/03/15 07:31:49;;;;;;;10.98;3.28;;;7.50;69.60;;;;;;5093349;28;20202;-61
2023/03/15 07:34:15;;;;;;;7.47;2.78;;;7.60;69.70;;;;;;5096692;28;20028;-61
2023/03/15 07:36:41;;;;;;;7.72;2.90;;;7.60;69.60;;;;;;5096608;28;20039;-61
2023/03/15 07:39:07;;;;;;;10.25;2.88;;;7.60;69.60;;;;;;5097033;28;20036;-61
2023/03/15 07:41:33;;;;;;;7.15;2.78;;;7.70;69.60;;;;;;5089321;28;20027;-61
2023/03/15 07:44:12;;;;;;;8.25;2.60;;;7.80;69.40;;;;;;5095344;28;20028;-61
2023/03/15 07:46:38;;;;;;;6.25;2.28;;;7.80;69.20;;;;;;5094902;28;20116;-61
2023/03/15 07:49:04;;;;;;;7.95;2.38;;;7.90;69.20;;;;;;5096428;28;20035;-62
2023/03/15 07:51:30;;;;;;;7.50;2.38;;;8.00;69.10;;;;;;5086978;28;20031;-62
2023/03/15 07:53:55;;;;;;;8.77;2.53;;;8.20;69.00;;;;;;5090106;28;20024;-61
2023/03/15 07:56:21;;;;;;;8.20;3.17;;;8.30;68.80;;;;;;5095108;28;20055;-62
2023/03/15 07:58:47;;;;;;;7.88;3.58;;;8.40;68.60;;;;;;5099748;28;20073;-61
2023/03/15 08:01:12;;;;;;;6.10;3.05;;;8.60;68.40;;;;;;5095084;28;20028;-61
2023/03/15 08:03:38;;;;;;;7.70;2.88;;;8.70;68.20;;;;;;5094021;28;20035;-62
2023/03/15 08:06:04;;;;;;;8.88;3.38;;;8.90;68.00;;;;;;5074944;28;20411;-63
2023/03/15 08:08:31;;;;;;;7.18;2.70;;;9.10;67.70;;;;;;5093642;28;20039;-62
2023/03/15 08:10:58;;;;;;;7.20;2.63;;;9.30;67.30;;;;;;5095485;28;20027;-63
2023/03/15 08:13:24;;;;;;;9.20;3.22;;;9.40;66.90;;;;;;5097357;28;20166;-61
2023/03/15 08:15:50;;;;;;;6.55;2.92;;;9.60;66.80;;;;;;5094140;28;20459;-62
2023/03/15 08:18:16;;;;;;;9.45;3.33;;;9.80;66.50;;;;;;5095405;28;20032;-61
2023/03/15 08:20:41;;;;;;;8.48;2.75;;;9.90;66.20;;;;;;5095537;28;20024;-61
2023/03/15 08:23:08;;;;;;;7.88;3.15;;;10.10;65.90;;;;;;5093295;28;20352;-61
2023/03/15 08:25:35;;;;;;;8.23;3.30;;;10.20;65.40;;;;;;5095294;28;20028;-63
2023/03/15 08:28:01;;;;;;;7.60;3.20;;;10.30;65.10;;;;;;5094170;28;20115;-62
2023/03/15 08:30:26;;;;;;;6.63;2.88;;;10.50;64.90;;;;;;5094196;28;20492;-62
2023/03/15 08:32:52;;;;;;;9.18;2.97;;;10.60;64.60;;;;;;5090995;28;20028;-63
2023/03/15 08:35:20;;;;;;;8.23;3.22;;;10.80;64.40;;;;;;5095239;28;20049;-62
2023/03/15 08:37:46;;;;;;;9.18;2.88;;;11.00;64.10;;;;;;5095696;28;20044;-63
2023/03/15 08:40:17;;;;;;;7.57;2.55;;;11.10;63.80;;;;;;5095427;28;20055;-62
2023/03/15 08:42:46;;;;;;;8.65;2.67;;;11.20;63.40;;;;;;5094709;28;20078;-63
2023/03/15 08:45:11;;;;;;;9.07;2.90;;;11.30;63.00;;;;;;5094088;28;20417;-62
2023/03/15 08:47:37;;;;;;;6.43;2.83;;;11.40;62.80;;;;;;5094139;28;20088;-62
2023/03/15 08:50:10;;;;;;;6.78;3.10;;;11.60;62.50;;;;;;5094688;28;20035;-61
2023/03/15 08:52:37;;;;;;;4.80;2.10;;;11.70;62.00;;;;;;5093933;28;20028;-62
2023/03/15 08:55:03;;;;;;;6.72;2.13;;;11.90;61.80;;;;;;5079707;28;20166;-62
2023/03/15 08:57:31;;;;;;;5.72;2.50;;;12.10;61.30;;;;;;5090113;28;20039;-61
2023/03/15 09:00:06;;;;;;;5.63;2.33;;;12.20;60.90;;;;;;5094409;28;20020;-61
2023/03/15 09:02:33;;;;;;;5.15;2.10;;;12.30;60.30;;;;;;5095403;28;20024;-62
2023/03/15 09:04:58;;;;;;;5.82;2.15;;;12.40;60.00;;;;;;5094522;28;20100;-61
2023/03/15 09:07:24;;;;;;;8.50;2.42;;;12.50;59.70;;;;;;5094783;28;20433;-61
2023/03/15 09:09:53;;;;;;;5.80;2.00;;;12.60;59.30;;;;;;5095005;28;20459;-62
2023/03/15 09:12:19;;;;;;;6.82;2.08;;;12.60;59.10;;;;;;5092998;28;20031;-62
2023/03/15 09:14:46;;;;;;;6.40;2.05;;;12.70;58.90;;;;;;5097252;28;20495;-62
2023/03/15 09:17:12;;;;;;;5.53;2.17;;;12.80;58.70;;;;;;5102440;28;20035;-61
2023/03/15 09:19:38;;;;;;;6.88;2.10;;;12.90;58.50;;;;;;5096460;28;20024;-62
2023/03/15 09:22:05;;;;;;;6.47;2.17;;;13.00;57.90;;;;;;5093153;28;20016;-62
2023/03/15 09:24:31;;;;;;;6.70;2.15;;;13.10;57.70;;;;;;5099074;28;20310;-62
2023/03/15 09:26:57;;;;;;;8.38;2.58;;;13.20;57.50;;;;;;5092606;28;20039;-61
2023/03/15 09:29:24;;;;;;;6.78;2.67;;;13.30;57.20;;;;;;5092192;28;20102;-60
2023/03/15 09:31:50;;;;;;;6.10;1.88;;;13.30;56.90;;;;;;5091424;28;20035;-60
2023/03/15 09:34:15;;;;;;;5.80;1.88;;;13.40;56.40;;;;;;5095044;28;20019;-60
2023/03/15 09:36:41;;;;;;;4.50;1.75;;;13.40;56.10;;;;;;5096710;28;20053;-61
2023/03/15 09:39:07;;;;;;;7.55;2.22;;;13.50;55.90;;;;;;5093652;28;20028;-62
2023/03/15 09:41:44;;;;;;;4.63;1.60;;;13.60;55.60;;;;;;5080008;28;20021;-62
2023/03/15 09:44:39;;;;;;;5.53;1.63;;;13.60;54.90;;;;;;5090329;28;20089;-62
2023/03/15 09:47:13;;;;;;;6.38;2.00;;;13.70;54.80;;;;;;5071876;28;20372;-61
2023/03/15 09:50:00;;;;;;;6.70;1.48;;;13.60;54.40;;;;;;5094057;28;20028;-62
2023/03/15 09:52:45;;;;;;;3.17;1.02;;;13.60;53.90;;;;;;5091379;28;20072;-61
2023/03/15 09:55:18;;;;;;;4.38;1.58;;;13.60;53.80;;;;;;5093095;28;20036;-61
2023/03/15 09:58:03;;;;;;;4.35;1.27;;;13.60;53.80;;;;;;5093008;28;20020;-61
2023/03/15 10:00:37;;;;;;;3.35;1.00;;;13.70;53.30;;;;;;5092112;28;20399;-62
2023/03/15 10:03:06;;;;;;;4.18;1.02;;;13.70;53.00;;;;;;5095440;28;20024;-62
2023/03/15 10:05:43;;;;;;;4.38;1.08;;;13.70;53.10;;;;;;5092038;28;20024;-61
2023/03/15 10:08:16;;;;;;;5.40;1.13;;;13.70;52.50;;;;;;5101760;28;20047;-61
2023/03/15 10:10:51;;;;;;;3.42;1.15;;;13.80;52.60;;;;;;5090957;28;20032;-61
2023/03/15 10:13:29;;;;;;;5.43;1.50;;;13.90;52.30;;;;;;5083224;28;20398;-62
2023/03/15 10:15:55;;;;;;;6.40;1.40;;;13.90;51.90;;;;;;5095435;28;20032;-61
2023/03/15 10:18:41;;;;;;;7.25;1.63;;;14.00;51.80;;;;;;5086580;28;20043;-61
2023/03/15 10:21:15;;;;;;;5.65;1.60;;;14.00;51.10;;;;;;5098389;28;20035;-61
2023/03/15 10:23:49;;;;;;;4.25;1.40;;;14.00;51.20;;;;;;5092685;28;20032;-61
2023/03/15 10:26:21;;;;;;;5.57;1.75;;;14.00;51.00;;;;;;5092137;28;20422;-61
2023/03/15 10:28:48;;;;;;;5.68;1.45;;;14.10;50.90;;;;;;5096227;28;20111;-61
2023/03/15 10:31:18;;;;;;;6.07;1.40;;;14.10;50.40;;;;;;5094792;28;20027;-61
2023/03/15 10:33:46;;;;;;;6.07;1.33;;;14.20;50.00;;;;;;5104645;28;20020;-61
2023/03/15 10:36:18;;;;;;;5.40;1.30;;;14.20;49.70;;;;;;5093501;28;20359;-61
2023/03/15 10:38:44;;;;;;;4.78;1.48;;;14.30;49.40;;;;;;5093451;28;20104;-61
2023/03/15 10:41:34;;;;;;;7.55;1.73;;;14.30;49.30;;;;;;5093639;28;20060;-62
2023/03/15 10:44:03;;;;;;;6.57;1.20;;;14.30;48.80;;;;;;5090742;28;20039;-61
2023/03/15 10:46:29;;;;;;;3.70;1.50;;;14.10;48.80;;;;;;5092618;28;20024;-61
2023/03/15 10:49:07;;;;;;;5.03;1.13;;;13.80;49.10;;;;;;5095995;28;20328;-61
2023/03/15 10:51:40;;;;;;;4.72;1.42;;;13.70;48.80;;;;;;5096846;28;20051;-61
2023/03/15 10:54:23;;;;;;;5.35;1.58;;;13.70;48.50;;;;;;5105085;28;20047;-61
2023/03/15 10:57:15;;;;;;;3.25;1.13;;;13.80;47.90;;;;;;5090583;28;20040;-61
2023/03/15 10:59:58;;;;;;;3.97;1.20;;;13.90;47.40;;;;;;5092875;28;20115;-61
2023/03/15 11:02:25;;;;;;;7.40;1.70;;;14.00;47.50;;;;;;5095685;28;20389;-61
2023/03/15 11:05:00;;;;;;;6.10;1.63;;;14.00;47.70;;;;;;5107517;28;20027;-61
2023/03/15 11:07:26;;;;;;;7.55;1.55;;;14.10;47.40;;;;;;5081894;28;20043;-61
2023/03/15 11:09:57;;;;;;;5.97;1.30;;;14.10;47.00;;;;;;5075172;28;20028;-61
2023/03/15 11:12:32;;;;;;;4.07;1.30;;;14.00;46.90;;;;;;5098801;28;20117;-61
2023/03/15 11:15:12;;;;;;;3.97;1.35;;;14.00;46.80;;;;;;5103381;28;20044;-61
2023/03/15 11:17:47;;;;;;;5.47;1.60;;;14.10;46.90;;;;;;5090684;28;20036;-61
2023/03/15 11:20:22;;;;;;;6.60;1.55;;;14.20;46.80;;;;;;5103377;28;20308;-61
2023/03/15 11:22:49;;;;;;;5.10;1.50;;;14.30;46.40;;;;;;5098238;28;20059;-61
2023/03/15 11:25:16;;;;;;;3.30;1.10;;;14.30;46.30;;;;;;5106651;28;20031;-61
2023/03/15 11:27:45;;;;;;;5.57;1.50;;;14.30;45.80;;;;;;5096389;28;20064;-61
2023/03/15 11:30:15;;;;;;;5.70;1.10;;;14.30;45.70;;;;;;5093528;28;20128;-61
2023/03/15 11:32:43;;;;;;;4.53;1.30;;;14.20;45.30;;;;;;5097579;28;20028;-61
2023/03/15 11:35:18;;;;;;;4.00;1.15;;;14.30;45.50;;;;;;5108260;28;20034;-60
2023/03/15 11:37:49;;;;;;;3.90;1.40;;;14.30;45.30;;;;;;5095810;28;20028;-60
2023/03/15 11:40:18;;;;;;;;;;;14.30;45.10;;;;;;5096952;28;20059;-61
2023/03/15 11:43:06;;;;;;;3.30;0.90;;;14.40;45.60;;;;;;5096672;28;20250;-61
2023/03/15 11:45:59;;;;;;;4.15;1.10;;;14.20;45.20;;;;;;5098597;28;20036;-60
2023/03/15 11:48:49;;;;;;;5.20;1.45;;;14.20;45.30;;;;;;5070980;28;20028;-61
2023/03/15 11:51:15;;;;;;;8.43;1.67;;;14.20;45.50;;;;;;5094639;28;20449;-60
2023/03/15 11:53:48;;;;;;;3.60;0.98;;;14.30;45.90;;;;;;5092201;28;20028;-60
2023/03/15 11:56:26;;;;;;;3.78;1.23;;;14.30;44.80;;;;;;5089551;28;20032;-61
2023/03/15 11:59:05;;;;;;;4.93;1.20;;;14.30;44.60;;;;;;5090789;28;20024;-61
2023/03/15 12:01:33;;;;;;;4.70;1.20;;;14.30;44.50;;;;;;5092685;28;20038;-61
2023/03/15 12:04:23;;;;;;;2.95;1.10;;;14.30;44.60;;;;;;5093720;28;20020;-62
2023/03/15 12:06:53;;;;;;;4.78;1.10;;;14.30;44.50;;;;;;5094499;28;20085;-62
2023/03/15 12:09:39;;;;;;;4.50;1.02;;;14.30;44.60;;;;;;5092002;28;20024;-61
2023/03/15 12:12:05;;;;;;;4.70;1.17;;;14.40;44.20;;;;;;5092301;28;20028;-62
2023/03/15 12:14:34;;;;;;;4.75;1.10;;;14.30;44.10;;;;;;5093442;28;20117;-61
2023/03/15 12:17:28;;;;;;;2.88;0.80;;;14.20;43.40;;;;;;5094982;28;20036;-62
2023/03/15 12:19:59;;;;;;;5.38;1.20;;;14.20;43.30;;;;;;5092690;28;20356;-62
2023/03/15 12:22:30;;;;;;;3.60;1.00;;;14.10;43.20;;;;;;5094714;28;20020;-62
2023/03/15 12:25:03;;;;;;;5.78;1.10;;;14.00;43.10;;;;;;5094484;28;20181;-62
2023/03/15 12:27:29;;;;;;;3.13;0.82;;;13.90;42.80;;;;;;5080395;28;20436;-62
2023/03/15 12:30:01;;;;;;;2.80;1.08;;;13.90;42.50;;;;;;5091257;28;20423;-62
2023/03/15 12:32:28;;;;;;;;;;;13.90;42.30;;;;;;5091537;28;20216;-61
2023/03/15 12:35:10;;;;;;;2.63;0.80;;;13.80;42.90;;;;;;5093777;28;19908;-61
2023/03/15 12:37:45;;;;;;;5.32;1.05;;;13.70;42.90;;;;;;5092202;28;20028;-62
2023/03/15 12:40:21;;;;;;;5.10;1.42;;;13.70;43.10;;;;;;5093539;28;20344;-62
2023/03/15 12:42:51;;;;;;;5.45;1.42;;;13.60;43.20;;;;;;5092415;28;20028;-61
2023/03/15 12:45:17;;;;;;;4.10;1.23;;;13.50;43.20;;;;;;5092303;28;20404;-61
2023/03/15 12:48:11;;;;;;;6.13;1.85;;;13.50;43.30;;;;;;5093682;28;20064;-62
2023/03/15 12:50:51;;;;;;;4.70;1.30;;;13.50;43.40;;;;;;5083493;28;20040;-62
2023/03/15 12:53:37;;;;;;;5.55;1.10;;;13.40;43.20;;;;;;5094352;28;20101;-62
2023/03/15 12:56:23;;;;;;;3.78;1.15;;;13.30;43.20;;;;;;5094743;28;20045;-62
2023/03/15 12:58:56;;;;;;;7.53;1.52;;;13.30;43.20;;;;;;5080893;28;20084;-62
2023/03/15 13:01:24;;;;;;;4.65;1.63;;;13.20;43.30;;;;;;5084115;28;20495;-63
2023/03/15 13:03:55;;;;;;;3.35;1.17;;;13.20;43.50;;;;;;5102932;28;20023;-62
2023/03/15 13:06:27;;;;;;;4.32;1.02;;;13.20;43.40;;;;;;5086176;28;20040;-61
2023/03/15 13:09:12;;;;;;;3.95;1.17;;;13.20;43.50;;;;;;5089985;28;20102;-61
2023/03/15 13:11:44;;;;;;;4.97;1.20;;;13.10;43.40;;;;;;5094756;28;20028;-61
2023/03/15 13:14:25;;;;;;;5.18;1.20;;;13.10;43.50;;;;;;5097844;28;20118;-62
2023/03/15 13:17:07;;;;;;;3.43;1.33;;;13.00;43.40;;;;;;5095249;28;20418;-61